Time;durP1;ratioP1;P1;durP2;ratioP2;P2;SDS_P1;SDS_P2;PMS_P1;PMS_P2;Temp;Humidity;BMP_temperature;BMP_pressure;BME280_temperature;BME280_humidity;BME280_pressure;Samples;Min_cycle;Max_cycle;Signal;HPM_P1;HPM_P2
2022/01/15 00:00:38;;;;;;;65.35;34.00;;;;;;;;;;5095123;28;20031;-64
2022/01/15 00:03:08;;;;;;;60.15;34.78;;;;;;;;;;5076888;28;20455;-63
2022/01/15 00:05:35;;;;;;;58.00;31.50;;;;;;;;;;5095061;28;20024;-63
2022/01/15 00:08:05;;;;;;;61.55;30.02;;;;;;;;;;5095018;28;20020;-63
2022/01/15 00:10:31;;;;;;;56.53;28.75;;;;;;;;;;5094968;28;20086;-63
2022/01/15 00:13:01;;;;;;;57.97;27.85;;;;;;;;;;5094611;28;20120;-63
2022/01/15 00:15:32;;;;;;;55.10;26.45;;;;;;;;;;5094969;28;20032;-62
2022/01/15 00:18:02;;;;;;;31.80;17.20;;;;;;;;;;5076680;28;20410;-63
2022/01/15 00:20:29;;;;;;;28.10;15.32;;;;;;;;;;5094736;28;20028;-63
2022/01/15 00:22:56;;;;;;;21.23;12.18;;;;;;;;;;5093559;28;20013;-63
2022/01/15 00:25:23;;;;;;;21.35;11.48;;;;;;;;;;5094644;28;20103;-63
2022/01/15 00:27:50;;;;;;;21.63;13.52;;;;;;;;;;5094676;28;20065;-63
2022/01/15 00:30:17;;;;;;;22.80;13.13;;;;;;;;;;5076638;28;20353;-63
2022/01/15 00:32:43;;;;;;;22.08;12.75;;;;;;;;;;5094488;28;20051;-63
2022/01/15 00:35:10;;;;;;;24.27;13.38;;;;;;;;;;5076024;28;20168;-63
2022/01/15 00:37:37;;;;;;;24.23;13.63;;;;;;;;;;5094345;28;20035;-62
2022/01/15 00:40:05;;;;;;;26.63;14.50;;;;;;;;;;5094394;28;20031;-63
2022/01/15 00:42:33;;;;;;;24.52;14.93;;;;;;;;;;5094404;28;20502;-63
2022/01/15 00:45:01;;;;;;;25.30;13.85;;;;;;;;;;5076074;28;20028;-63
2022/01/15 00:47:31;;;;;;;26.63;15.10;;;;;;;;;;5076096;28;20089;-63
2022/01/15 00:49:58;;;;;;;23.40;14.20;;;;;;;;;;5094200;28;20063;-63
2022/01/15 00:52:26;;;;;;;23.75;13.85;;;;;;;;;;5094178;28;20021;-63
2022/01/15 00:54:53;;;;;;;25.58;14.38;;;;;;;;;;5094079;28;20128;-63
2022/01/15 00:57:19;;;;;;;27.83;14.20;;;;;;;;;;5094019;28;20023;-63
2022/01/15 00:59:46;;;;;;;28.38;15.20;;;;;;;;;;5094049;28;20043;-63
2022/01/15 01:02:12;;;;;;;25.92;13.80;;;;;;;;;;5094276;28;20024;-63
2022/01/15 01:04:38;;;;;;;24.55;13.88;;;;;;;;;;5093955;28;20464;-63
2022/01/15 01:07:05;;;;;;;29.63;13.45;;;;;;;;;;5093895;28;20020;-63
2022/01/15 01:23:12;;;;;;;24.42;12.38;;;;;;;;;;5093732;28;20043;-64
2022/01/15 01:25:45;;;;;;;22.25;12.93;;;;;;;;;;5093622;28;20454;-64
2022/01/15 01:28:26;;;;;;;23.02;11.65;;;;;;;;;;5093560;28;20058;-64
2022/01/15 01:31:02;;;;;;;24.08;12.70;;;;;;;;;;5075442;28;20043;-64
2022/01/15 01:33:33;;;;;;;25.10;12.57;;;;;;;;;;5074921;28;20032;-64
2022/01/15 01:36:08;;;;;;;23.98;12.52;;;;;;;;;;5071475;28;20480;-64
2022/01/15 01:38:42;;;;;;;25.42;13.10;;;;;;;;;;5063118;28;20385;-64
2022/01/15 01:41:14;;;;;;;20.50;11.98;;;;;;;;;;5061023;28;20024;-64
2022/01/15 01:43:46;;;;;;;29.10;14.15;;;;;;;;;;5059811;28;20021;-64
2022/01/15 01:46:31;;;;;;;;;;;;;;;;;;5059891;28;20058;-65
2022/01/15 01:48:59;;;;;;;23.30;13.15;;;;;;;;;;5057672;28;19911;-65
2022/01/15 01:51:31;;;;;;;21.60;11.23;;;;;;;;;;5061167;28;20021;-64
2022/01/15 01:53:57;;;;;;;25.17;12.13;;;;;;;;;;5062452;28;20024;-65
2022/01/15 01:56:24;;;;;;;23.05;12.35;;;;;;;;;;5061890;28;20029;-65
2022/01/15 01:58:50;;;;;;;24.33;12.50;;;;;;;;;;5060604;28;20058;-66
2022/01/15 02:01:17;;;;;;;25.38;13.25;;;;;;;;;;5061130;28;20028;-64
2022/01/15 02:03:46;;;;;;;21.83;11.85;;;;;;;;;;5061795;28;20025;-65
2022/01/15 02:06:19;;;;;;;19.95;12.10;;;;;;;;;;5060643;28;20124;-64
2022/01/15 02:08:46;;;;;;;19.58;11.50;;;;;;;;;;5061281;28;20405;-65
2022/01/15 02:11:12;;;;;;;23.80;12.00;;;;;;;;;;5062479;28;20070;-65
2022/01/15 02:13:40;;;;;;;21.98;11.70;;;;;;;;;;5061050;28;20380;-65
2022/01/15 02:16:06;;;;;;;25.00;13.00;;;;;;;;;;5061269;28;20103;-65
2022/01/15 02:18:36;;;;;;;21.70;12.70;;;;;;;;;;5062365;28;20025;-65
2022/01/15 02:23:35;;;;;;;21.23;11.82;;;;;;;;;;5061630;28;20036;-65
2022/01/15 02:26:05;;;;;;;19.67;12.80;;;;;;;;;;5058615;28;20013;-65
2022/01/15 02:28:33;;;;;;;23.77;13.03;;;;;;;;;;5063969;28;20028;-64
2022/01/15 02:31:00;;;;;;;20.13;12.35;;;;;;;;;;5072559;28;20089;-64
2022/01/15 02:33:27;;;;;;;22.45;12.82;;;;;;;;;;5066652;28;20491;-65
2022/01/15 02:35:53;;;;;;;22.15;12.35;;;;;;;;;;5082872;28;20124;-64
2022/01/15 02:38:22;;;;;;;25.25;12.57;;;;;;;;;;5091511;28;20084;-64
2022/01/15 02:40:48;;;;;;;24.67;12.73;;;;;;;;;;5091479;28;20060;-64
2022/01/15 02:43:18;;;;;;;23.75;12.95;;;;;;;;;;5092675;28;20035;-64
2022/01/15 02:45:53;;;;;;;37.65;19.15;;;;;;;;;;5094122;28;20077;-64
2022/01/15 02:48:19;;;;;;;35.85;18.75;;;;;;;;;;5096644;28;20483;-64
2022/01/15 02:50:46;;;;;;;40.53;20.95;;;;;;;;;;5096544;28;20035;-64
2022/01/15 02:53:18;;;;;;;38.53;19.40;;;;;;;;;;5096473;28;20032;-63
2022/01/15 02:55:48;;;;;;;34.75;19.00;;;;;;;;;;5096196;28;20032;-64
2022/01/15 02:58:15;;;;;;;40.00;19.80;;;;;;;;;;5096374;28;20063;-64
2022/01/15 03:00:44;;;;;;;33.53;18.58;;;;;;;;;;5095692;28;20052;-64
2022/01/15 03:03:10;;;;;;;38.13;19.30;;;;;;;;;;5094703;28;20028;-63
2022/01/15 03:05:36;;;;;;;40.45;20.75;;;;;;;;;;5076599;28;20395;-63
2022/01/15 03:08:03;;;;;;;36.55;19.77;;;;;;;;;;5094941;28;20157;-64
2022/01/15 03:10:29;;;;;;;39.35;20.13;;;;;;;;;;5076670;28;20069;-64
2022/01/15 03:12:57;;;;;;;38.15;20.98;;;;;;;;;;5095408;28;20024;-65
2022/01/15 03:15:23;;;;;;;34.95;19.65;;;;;;;;;;5077819;28;20115;-65
2022/01/15 03:17:51;;;;;;;36.53;20.27;;;;;;;;;;5095632;28;20528;-64
2022/01/15 03:20:19;;;;;;;36.70;19.90;;;;;;;;;;5095953;28;20472;-63
2022/01/15 03:22:46;;;;;;;34.88;19.63;;;;;;;;;;5095904;28;20528;-63
2022/01/15 03:25:12;;;;;;;35.13;19.25;;;;;;;;;;5095853;28;20024;-63
2022/01/15 03:27:39;;;;;;;35.63;18.27;;;;;;;;;;5095799;28;20461;-63
2022/01/15 03:30:07;;;;;;;35.78;18.80;;;;;;;;;;5095788;28;20463;-63
2022/01/15 03:32:34;;;;;;;34.38;18.25;;;;;;;;;;5077499;28;20468;-63
2022/01/15 03:35:00;;;;;;;36.63;18.70;;;;;;;;;;5077232;28;20135;-63
2022/01/15 03:37:26;;;;;;;35.13;18.10;;;;;;;;;;5077336;28;20038;-63
2022/01/15 03:39:53;;;;;;;32.78;16.58;;;;;;;;;;5095669;28;20028;-63
2022/01/15 03:42:19;;;;;;;30.23;15.93;;;;;;;;;;5077363;28;20055;-63
2022/01/15 03:44:52;;;;;;;29.25;16.45;;;;;;;;;;5077286;28;20023;-63
2022/01/15 03:47:21;;;;;;;29.35;14.63;;;;;;;;;;5095450;28;20024;-63
2022/01/15 03:49:47;;;;;;;28.25;15.43;;;;;;;;;;5077272;28;20123;-65
2022/01/15 03:52:13;;;;;;;32.83;17.00;;;;;;;;;;5077216;28;20070;-65
2022/01/15 03:54:40;;;;;;;36.50;18.65;;;;;;;;;;5094973;28;20386;-64
2022/01/15 03:57:06;;;;;;;35.20;16.85;;;;;;;;;;5094537;28;20420;-64
2022/01/15 03:59:38;;;;;;;30.33;17.00;;;;;;;;;;5095538;28;20107;-64
2022/01/15 04:02:07;;;;;;;37.45;17.63;;;;;;;;;;5095251;28;20032;-64
2022/01/15 04:04:36;;;;;;;34.33;18.08;;;;;;;;;;5095153;28;20027;-63
2022/01/15 04:07:02;;;;;;;40.85;19.90;;;;;;;;;;5076820;28;20028;-63
2022/01/15 04:09:29;;;;;;;35.47;19.15;;;;;;;;;;5076949;28;20558;-64
2022/01/15 04:11:55;;;;;;;34.40;17.95;;;;;;;;;;5094940;28;20031;-64
2022/01/15 04:14:21;;;;;;;38.33;20.98;;;;;;;;;;5076751;28;20492;-65
2022/01/15 04:16:48;;;;;;;40.92;20.60;;;;;;;;;;5076693;28;20028;-63
2022/01/15 04:19:14;;;;;;;35.60;18.58;;;;;;;;;;5094747;28;20071;-63
2022/01/15 04:21:40;;;;;;;34.22;18.70;;;;;;;;;;5094793;28;20062;-64
2022/01/15 04:24:06;;;;;;;37.83;18.63;;;;;;;;;;5094702;28;20016;-63
2022/01/15 04:26:33;;;;;;;37.28;18.95;;;;;;;;;;5094676;28;20472;-64
2022/01/15 04:29:03;;;;;;;36.65;19.13;;;;;;;;;;5094655;28;20028;-64
2022/01/15 04:31:36;;;;;;;38.33;19.95;;;;;;;;;;5076432;28;20353;-64
2022/01/15 04:34:05;;;;;;;38.22;19.15;;;;;;;;;;5094595;28;20468;-64
2022/01/15 04:36:32;;;;;;;37.05;19.52;;;;;;;;;;5094605;28;20455;-64
2022/01/15 04:38:58;;;;;;;35.25;18.10;;;;;;;;;;5094409;28;20112;-64
2022/01/15 04:41:24;;;;;;;27.05;17.25;;;;;;;;;;5076168;28;20123;-64
2022/01/15 04:43:50;;;;;;;42.45;20.80;;;;;;;;;;5094356;28;20059;-64
2022/01/15 04:46:17;;;;;;;50.88;24.55;;;;;;;;;;5094326;28;20028;-64
2022/01/15 04:48:43;;;;;;;40.95;20.70;;;;;;;;;;5093965;28;20077;-63
2022/01/15 04:51:09;;;;;;;36.72;19.77;;;;;;;;;;5075964;28;20478;-64
2022/01/15 04:53:36;;;;;;;33.78;17.80;;;;;;;;;;5075963;28;20099;-65
2022/01/15 04:56:02;;;;;;;35.20;17.90;;;;;;;;;;5093885;28;20032;-64
2022/01/15 04:58:28;;;;;;;33.70;16.60;;;;;;;;;;5093686;28;20483;-64
2022/01/15 05:00:54;;;;;;;30.10;15.98;;;;;;;;;;5094365;28;20114;-64
2022/01/15 05:03:21;;;;;;;28.23;15.32;;;;;;;;;;5093982;28;20043;-64
2022/01/15 05:05:49;;;;;;;28.08;15.55;;;;;;;;;;5093959;28;20024;-64
2022/01/15 05:08:16;;;;;;;31.00;16.70;;;;;;;;;;5075029;28;20036;-64
2022/01/15 05:10:46;;;;;;;28.88;15.65;;;;;;;;;;5093909;28;20465;-65
2022/01/15 05:13:14;;;;;;;30.00;15.23;;;;;;;;;;5093656;28;20559;-64
2022/01/15 05:15:44;;;;;;;29.52;16.02;;;;;;;;;;5093815;28;20468;-65
2022/01/15 05:18:11;;;;;;;29.02;15.52;;;;;;;;;;5093711;28;20073;-65
2022/01/15 05:20:43;;;;;;;28.08;14.40;;;;;;;;;;5093342;28;20118;-64
2022/01/15 05:23:09;;;;;;;23.17;14.52;;;;;;;;;;5093743;28;20455;-65
2022/01/15 05:25:38;;;;;;;23.20;13.43;;;;;;;;;;5093574;28;20024;-65
2022/01/15 05:28:04;;;;;;;25.75;13.45;;;;;;;;;;5093587;28;20063;-64
2022/01/15 05:30:32;;;;;;;24.33;13.05;;;;;;;;;;5075414;28;20058;-64
2022/01/15 05:32:59;;;;;;;26.55;15.90;;;;;;;;;;5075359;28;20077;-64
2022/01/15 05:35:28;;;;;;;25.30;13.93;;;;;;;;;;5093352;28;20484;-64
2022/01/15 05:37:57;;;;;;;30.48;15.15;;;;;;;;;;5093335;28;20035;-63
2022/01/15 05:40:27;;;;;;;30.67;14.98;;;;;;;;;;5093399;28;20032;-63
2022/01/15 05:42:53;;;;;;;27.38;15.68;;;;;;;;;;5093299;28;20024;-63
2022/01/15 05:45:21;;;;;;;31.98;17.10;;;;;;;;;;5093258;28;20169;-63
2022/01/15 05:47:48;;;;;;;32.13;14.60;;;;;;;;;;5074822;28;20039;-63
2022/01/15 05:50:14;;;;;;;35.50;16.60;;;;;;;;;;5093249;28;20028;-63
2022/01/15 05:52:41;;;;;;;37.88;16.55;;;;;;;;;;5075115;28;20115;-63
2022/01/15 05:55:07;;;;;;;32.63;15.73;;;;;;;;;;5093745;28;20440;-63
2022/01/15 05:57:34;;;;;;;32.97;16.83;;;;;;;;;;5093113;28;20406;-63
2022/01/15 06:00:00;;;;;;;33.88;18.30;;;;;;;;;;5093203;28;20032;-63
2022/01/15 06:02:29;;;;;;;37.33;19.02;;;;;;;;;;5093102;28;20059;-63
2022/01/15 06:04:55;;;;;;;45.67;19.85;;;;;;;;;;5074891;28;20028;-64
2022/01/15 06:07:21;;;;;;;38.58;19.65;;;;;;;;;;5074923;28;20450;-64
2022/01/15 06:09:48;;;;;;;47.22;21.88;;;;;;;;;;5074963;28;20464;-64
2022/01/15 06:12:14;;;;;;;45.63;23.00;;;;;;;;;;5093038;28;20066;-63
2022/01/15 06:14:40;;;;;;;46.58;24.55;;;;;;;;;;5074904;28;20453;-64
2022/01/15 06:17:08;;;;;;;48.88;23.40;;;;;;;;;;5092975;28;20028;-64
2022/01/15 06:19:35;;;;;;;52.13;24.17;;;;;;;;;;5075657;28;20032;-63
2022/01/15 06:22:04;;;;;;;47.13;24.92;;;;;;;;;;5078899;28;20491;-63
2022/01/15 06:24:30;;;;;;;55.63;27.17;;;;;;;;;;5097316;28;20105;-63
2022/01/15 06:26:56;;;;;;;49.60;23.85;;;;;;;;;;5096691;28;20058;-63
2022/01/15 06:29:24;;;;;;;50.90;24.00;;;;;;;;;;5096928;28;20060;-63
2022/01/15 06:31:52;;;;;;;45.67;22.52;;;;;;;;;;5096925;28;20056;-64
2022/01/15 06:34:19;;;;;;;40.42;21.42;;;;;;;;;;5096634;28;20020;-64
2022/01/15 06:36:45;;;;;;;36.25;19.25;;;;;;;;;;5096874;28;20075;-63
2022/01/15 06:39:11;;;;;;;34.38;19.63;;;;;;;;;;5096658;28;20028;-63
2022/01/15 06:41:37;;;;;;;37.53;18.98;;;;;;;;;;5078467;28;20032;-63
2022/01/15 06:44:06;;;;;;;36.92;18.95;;;;;;;;;;5074438;28;20551;-63
2022/01/15 06:46:32;;;;;;;34.38;18.30;;;;;;;;;;5080205;28;20028;-64
2022/01/15 06:49:01;;;;;;;43.42;20.90;;;;;;;;;;5096254;28;20134;-63
2022/01/15 06:51:28;;;;;;;42.72;22.17;;;;;;;;;;5078320;28;20107;-63
2022/01/15 06:53:54;;;;;;;44.92;23.80;;;;;;;;;;5094989;28;20028;-64
2022/01/15 06:56:20;;;;;;;47.75;26.85;;;;;;;;;;5095198;28;20119;-63
2022/01/15 06:58:46;;;;;;;72.57;34.10;;;;;;;;;;5077854;28;20039;-63
2022/01/15 07:01:12;;;;;;;81.95;38.75;;;;;;;;;;5077963;28;20040;-63
2022/01/15 07:03:44;;;;;;;61.05;31.00;;;;;;;;;;5096068;28;20082;-63
2022/01/15 07:06:10;;;;;;;49.85;26.73;;;;;;;;;;5095820;28;20056;-63
2022/01/15 07:08:38;;;;;;;49.15;25.95;;;;;;;;;;5095487;28;20407;-63
2022/01/15 07:11:04;;;;;;;54.17;28.95;;;;;;;;;;5078206;28;20372;-63
2022/01/15 07:13:33;;;;;;;52.78;33.28;;;;;;;;;;5077786;28;20028;-63
2022/01/15 07:15:59;;;;;;;50.03;27.90;;;;;;;;;;5077056;28;20388;-63
2022/01/15 07:18:26;;;;;;;51.92;27.25;;;;;;;;;;5095850;28;20039;-62
2022/01/15 07:20:52;;;;;;;78.60;39.65;;;;;;;;;;5077747;28;20123;-63
2022/01/15 07:23:18;;;;;;;72.63;37.20;;;;;;;;;;5096099;28;20051;-63
2022/01/15 07:25:45;;;;;;;66.20;33.20;;;;;;;;;;5077375;28;20127;-63
2022/01/15 07:28:11;;;;;;;67.43;31.55;;;;;;;;;;5095605;28;20067;-63
2022/01/15 07:30:37;;;;;;;64.63;29.08;;;;;;;;;;5095674;28;20028;-63
2022/01/15 07:33:04;;;;;;;46.13;23.38;;;;;;;;;;5094887;28;20028;-63
2022/01/15 07:35:44;;;;;;;37.28;21.08;;;;;;;;;;5094627;28;20078;-63
2022/01/15 07:38:13;;;;;;;49.83;24.23;;;;;;;;;;5076821;28;20040;-63
2022/01/15 07:40:39;;;;;;;46.42;24.35;;;;;;;;;;5095504;28;20028;-65
2022/01/15 07:43:05;;;;;;;52.78;26.90;;;;;;;;;;5095456;28;20028;-63
2022/01/15 07:45:31;;;;;;;57.70;30.98;;;;;;;;;;5095168;28;20025;-63
2022/01/15 07:47:57;;;;;;;64.13;33.13;;;;;;;;;;5095203;28;20043;-63
2022/01/15 07:50:24;;;;;;;67.93;33.10;;;;;;;;;;5095630;28;20152;-66
2022/01/15 07:52:54;;;;;;;58.25;30.88;;;;;;;;;;5095189;28;20097;-65
2022/01/15 07:55:20;;;;;;;50.50;28.05;;;;;;;;;;5094666;28;20083;-67
2022/01/15 07:57:46;;;;;;;46.88;26.17;;;;;;;;;;5076919;28;20035;-64
2022/01/15 08:00:14;;;;;;;48.08;27.40;;;;;;;;;;5094898;28;20232;-68
2022/01/15 08:02:40;;;;;;;51.85;27.30;;;;;;;;;;5078709;28;20086;-65
2022/01/15 08:05:07;;;;;;;44.30;24.98;;;;;;;;;;5078053;28;20069;-69
2022/01/15 08:07:33;;;;;;;39.83;23.30;;;;;;;;;;5091648;28;20116;-69
2022/01/15 08:10:00;;;;;;;37.33;22.23;;;;;;;;;;5076320;28;20023;-68
2022/01/15 08:12:26;;;;;;;42.45;23.83;;;;;;;;;;5094860;28;20024;-71
2022/01/15 08:14:55;;;;;;;45.30;24.35;;;;;;;;;;5076659;28;20063;-69
2022/01/15 08:17:21;;;;;;;39.42;21.48;;;;;;;;;;5076598;28;20078;-70
2022/01/15 08:19:47;;;;;;;44.97;24.08;;;;;;;;;;5076485;28;20120;-71
2022/01/15 08:22:13;;;;;;;43.85;23.95;;;;;;;;;;5076508;28;20115;-69
2022/01/15 08:24:40;;;;;;;44.28;25.42;;;;;;;;;;5094293;28;20368;-71
2022/01/15 08:27:06;;;;;;;43.95;25.85;;;;;;;;;;5094266;28;20372;-69
2022/01/15 08:29:32;;;;;;;45.22;24.95;;;;;;;;;;5094240;28;20547;-64
2022/01/15 08:31:59;;;;;;;44.65;24.25;;;;;;;;;;5090332;28;20069;-72
2022/01/15 08:34:25;;;;;;;49.33;27.30;;;;;;;;;;5094220;28;20107;-69
2022/01/15 08:36:51;;;;;;;56.03;30.05;;;;;;;;;;5094005;28;20431;-70
2022/01/15 08:39:17;;;;;;;56.05;31.30;;;;;;;;;;5076143;28;20118;-70
2022/01/15 08:41:48;;;;;;;61.25;31.60;;;;;;;;;;5076099;28;20067;-68
2022/01/15 08:44:19;;;;;;;53.85;28.70;;;;;;;;;;5093317;28;20097;-70
2022/01/15 08:46:45;;;;;;;54.83;28.95;;;;;;;;;;5094260;28;20024;-66
2022/01/15 08:49:11;;;;;;;52.55;27.73;;;;;;;;;;5094122;28;20490;-69
2022/01/15 08:51:38;;;;;;;58.92;31.30;;;;;;;;;;5094180;28;20107;-67
2022/01/15 08:54:04;;;;;;;39.65;22.67;;;;;;;;;;5075743;28;20032;-65
2022/01/15 08:56:30;;;;;;;39.42;22.80;;;;;;;;;;5094026;28;20020;-68
2022/01/15 08:58:56;;;;;;;38.42;22.00;;;;;;;;;;5093588;28;20034;-66
2022/01/15 09:01:22;;;;;;;42.00;23.35;;;;;;;;;;5094214;28;20107;-65
2022/01/15 09:03:49;;;;;;;37.22;21.30;;;;;;;;;;5093796;28;20059;-67
2022/01/15 09:06:15;;;;;;;62.63;31.23;;;;;;;;;;5093506;28;20055;-67
2022/01/15 09:08:43;;;;;;;77.50;35.35;;;;;;;;;;5075554;28;20063;-66
2022/01/15 09:11:09;;;;;;;73.25;32.67;;;;;;;;;;5093503;28;20023;-64
2022/01/15 09:13:35;;;;;;;73.78;30.85;;;;;;;;;;5093995;28;20424;-66
2022/01/15 09:16:02;;;;;;;62.15;27.50;;;;;;;;;;5093586;28;20028;-66
2022/01/15 09:18:29;;;;;;;84.05;35.30;;;;;;;;;;5074933;28;20031;-69
2022/01/15 09:20:55;;;;;;;63.90;30.30;;;;;;;;;;5075380;28;20365;-67
2022/01/15 09:23:22;;;;;;;69.80;33.78;;;;;;;;;;5074911;28;20129;-67
2022/01/15 09:25:49;;;;;;;60.22;30.55;;;;;;;;;;5093370;28;20020;-68
2022/01/15 09:31:01;;;;;;;46.88;24.58;;;;;;;;;;5093570;28;20043;-65
2022/01/15 09:33:27;;;;;;;38.75;22.00;;;;;;;;;;5093446;28;20028;-64
2022/01/15 09:35:53;;;;;;;41.53;24.02;;;;;;;;;;5071724;28;20052;-70
2022/01/15 09:38:20;;;;;;;41.30;21.67;;;;;;;;;;5073130;28;20028;-69
2022/01/15 09:40:47;;;;;;;35.20;19.92;;;;;;;;;;5073293;28;20029;-66
2022/01/15 09:43:15;;;;;;;40.90;20.35;;;;;;;;;;5073222;28;20112;-68
2022/01/15 09:45:42;;;;;;;29.23;17.52;;;;;;;;;;5073179;28;20063;-68
2022/01/15 09:48:08;;;;;;;34.53;21.00;;;;;;;;;;5071808;28;20071;-68
2022/01/15 09:50:42;;;;;;;36.83;21.48;;;;;;;;;;5073107;28;20046;-67
2022/01/15 09:53:10;;;;;;;40.17;21.88;;;;;;;;;;5071829;28;20025;-64
2022/01/15 09:55:41;;;;;;;41.17;23.65;;;;;;;;;;5072727;28;20456;-65
2022/01/15 09:58:08;;;;;;;42.17;22.08;;;;;;;;;;5072931;28;20032;-64
2022/01/15 10:00:34;;;;;;;47.22;24.58;;;;;;;;;;5071690;28;20052;-63
2022/01/15 10:03:00;;;;;;;38.35;21.50;;;;;;;;;;5072915;28;20021;-64
2022/01/15 10:05:27;;;;;;;38.58;23.02;;;;;;;;;;5072656;28;20047;-64
2022/01/15 10:07:58;;;;;;;44.83;24.73;;;;;;;;;;5072872;28;20057;-64
2022/01/15 10:10:25;;;;;;;39.30;23.73;;;;;;;;;;5071527;28;20051;-69
2022/01/15 10:12:51;;;;;;;31.40;19.65;;;;;;;;;;5072922;28;20023;-68
2022/01/15 10:15:18;;;;;;;35.88;20.73;;;;;;;;;;5072852;28;20021;-69
2022/01/15 10:17:44;;;;;;;34.50;19.08;;;;;;;;;;5072751;28;20035;-67
2022/01/15 10:20:13;;;;;;;30.13;19.02;;;;;;;;;;5071533;28;20124;-69
2022/01/15 10:22:41;;;;;;;32.33;17.05;;;;;;;;;;5073137;28;20099;-70
2022/01/15 10:25:11;;;;;;;30.98;18.67;;;;;;;;;;5072546;28;20021;-68
2022/01/15 10:27:41;;;;;;;27.70;16.17;;;;;;;;;;5072777;28;20066;-67
2022/01/15 10:30:11;;;;;;;34.95;17.80;;;;;;;;;;5071711;28;20396;-68
2022/01/15 10:32:41;;;;;;;29.55;17.15;;;;;;;;;;5071430;28;20060;-68
2022/01/15 10:35:15;;;;;;;26.63;16.40;;;;;;;;;;5080762;28;20082;-67
2022/01/15 10:37:48;;;;;;;30.67;17.13;;;;;;;;;;5074432;28;20024;-67
2022/01/15 10:40:15;;;;;;;32.20;19.38;;;;;;;;;;5092846;28;20107;-68
2022/01/15 10:42:41;;;;;;;33.58;19.58;;;;;;;;;;5092813;28;20032;-67
2022/01/15 10:45:12;;;;;;;78.45;42.63;;;;;;;;;;5092701;28;20419;-66
2022/01/15 10:47:48;;;;;;;25.75;15.27;;;;;;;;;;5074599;28;20038;-67
2022/01/15 10:50:23;;;;;;;31.17;18.42;;;;;;;;;;5074206;28;20039;-66
2022/01/15 10:52:50;;;;;;;35.25;17.48;;;;;;;;;;5074561;28;20541;-68
2022/01/15 10:55:17;;;;;;;30.33;16.65;;;;;;;;;;5092594;28;20494;-67
2022/01/15 10:57:43;;;;;;;26.50;15.02;;;;;;;;;;5092529;28;20031;-67
2022/01/15 11:00:14;;;;;;;30.90;14.10;;;;;;;;;;5092590;28;20028;-69
2022/01/15 11:02:41;;;;;;;27.67;16.37;;;;;;;;;;5092573;28;20028;-67
2022/01/15 11:05:19;;;;;;;33.88;19.33;;;;;;;;;;5074269;28;20241;-66
2022/01/15 11:07:45;;;;;;;28.15;18.52;;;;;;;;;;5076887;28;20448;-66
2022/01/15 11:10:12;;;;;;;31.67;17.00;;;;;;;;;;5096187;28;20491;-66
2022/01/15 11:12:38;;;;;;;21.83;14.70;;;;;;;;;;5096167;28;20107;-65
2022/01/15 11:15:06;;;;;;;34.10;18.05;;;;;;;;;;5096067;28;20120;-66
2022/01/15 11:17:33;;;;;;;31.50;19.63;;;;;;;;;;5095964;28;20028;-65
2022/01/15 11:20:01;;;;;;;29.17;17.35;;;;;;;;;;5077614;28;20051;-67
2022/01/15 11:22:28;;;;;;;33.60;20.27;;;;;;;;;;5077334;28;20144;-66
2022/01/15 11:24:54;;;;;;;26.05;15.35;;;;;;;;;;5095870;28;20468;-67
2022/01/15 11:27:21;;;;;;;26.20;16.38;;;;;;;;;;5096090;28;20028;-67
2022/01/15 11:29:47;;;;;;;37.50;20.33;;;;;;;;;;5096042;28;20030;-65
2022/01/15 11:32:14;;;;;;;26.58;17.10;;;;;;;;;;5095564;28;20020;-65
2022/01/15 11:34:42;;;;;;;28.30;16.48;;;;;;;;;;5077194;28;20056;-66
2022/01/15 11:37:16;;;;;;;34.47;17.55;;;;;;;;;;5077575;28;20130;-66
2022/01/15 11:39:42;;;;;;;24.55;15.65;;;;;;;;;;5095532;28;20080;-67
2022/01/15 11:42:24;;;;;;;31.50;19.65;;;;;;;;;;5095656;28;20479;-65
2022/01/15 11:44:50;;;;;;;34.53;19.08;;;;;;;;;;5095881;28;20103;-68
2022/01/15 11:47:20;;;;;;;36.17;18.55;;;;;;;;;;5077278;28;20433;-67
2022/01/15 11:49:58;;;;;;;30.70;16.70;;;;;;;;;;5077203;28;20055;-67
2022/01/15 11:52:26;;;;;;;29.98;16.70;;;;;;;;;;5095403;28;20070;-66
2022/01/15 11:54:52;;;;;;;28.02;15.10;;;;;;;;;;5095262;28;20411;-66
2022/01/15 11:57:31;;;;;;;24.58;14.85;;;;;;;;;;5095256;28;20059;-66
2022/01/15 12:00:01;;;;;;;29.02;15.90;;;;;;;;;;5077052;28;20063;-68
2022/01/15 12:02:32;;;;;;;28.02;16.35;;;;;;;;;;5095231;28;20102;-67
2022/01/15 12:05:17;;;;;;;21.13;13.32;;;;;;;;;;5095150;28;20074;-67
2022/01/15 12:07:44;;;;;;;25.15;14.65;;;;;;;;;;5095075;28;20111;-66
2022/01/15 12:10:17;;;;;;;25.55;14.15;;;;;;;;;;5094992;28;20020;-66
2022/01/15 12:12:50;;;;;;;31.17;17.40;;;;;;;;;;5076977;28;20647;-65
2022/01/15 12:15:27;;;;;;;27.45;14.73;;;;;;;;;;5094940;28;20016;-66
2022/01/15 12:17:59;;;;;;;22.75;14.00;;;;;;;;;;5076507;28;20531;-66
2022/01/15 12:20:28;;;;;;;49.28;27.95;;;;;;;;;;5076630;28;20020;-67
2022/01/15 12:22:56;;;;;;;25.98;14.75;;;;;;;;;;5094830;28;20059;-68
2022/01/15 12:25:22;;;;;;;26.25;15.38;;;;;;;;;;5094617;28;20531;-66
2022/01/15 12:27:56;;;;;;;24.50;14.18;;;;;;;;;;5095015;28;20099;-65
2022/01/15 12:30:31;;;;;;;20.05;12.73;;;;;;;;;;5094684;28;20027;-66
2022/01/15 12:33:00;;;;;;;19.77;13.02;;;;;;;;;;5094607;28;20062;-69
2022/01/15 12:35:29;;;;;;;21.20;13.07;;;;;;;;;;5094139;28;20044;-66
2022/01/15 12:37:55;;;;;;;23.17;13.85;;;;;;;;;;5094457;28;20525;-65
2022/01/15 12:40:22;;;;;;;26.40;14.27;;;;;;;;;;5094444;28;20024;-67
2022/01/15 12:43:20;;;;;;;19.17;12.00;;;;;;;;;;5094410;28;20517;-66
2022/01/15 12:45:47;;;;;;;24.80;12.63;;;;;;;;;;5038840;28;20032;-67
2022/01/15 12:48:18;;;;;;;49.53;30.98;;;;;;;;;;5076042;28;20093;-66
2022/01/15 12:50:52;;;;;;;25.33;14.18;;;;;;;;;;5094258;28;20496;-67
2022/01/15 12:53:20;;;;;;;23.08;13.00;;;;;;;;;;5094275;28;20099;-65
2022/01/15 12:55:46;;;;;;;27.70;13.45;;;;;;;;;;5094155;28;20032;-67
2022/01/15 12:58:15;;;;;;;35.10;17.48;;;;;;;;;;5075509;28;20020;-67
2022/01/15 13:00:41;;;;;;;24.80;12.45;;;;;;;;;;5094266;28;20024;-67
2022/01/15 13:03:11;;;;;;;30.13;14.93;;;;;;;;;;5093740;28;20153;-67
2022/01/15 13:05:41;;;;;;;23.17;13.10;;;;;;;;;;5093604;28;20115;-66
2022/01/15 13:08:14;;;;;;;23.65;13.55;;;;;;;;;;5075687;28;20034;-67
2022/01/15 13:10:47;;;;;;;18.10;11.65;;;;;;;;;;5093775;28;20023;-64
2022/01/15 13:13:14;;;;;;;27.02;15.45;;;;;;;;;;5094050;28;20452;-68
2022/01/15 13:15:40;;;;;;;32.28;16.08;;;;;;;;;;5093884;28;20523;-67
2022/01/15 13:18:14;;;;;;;25.48;16.48;;;;;;;;;;5075640;28;20142;-66
2022/01/15 13:20:40;;;;;;;25.10;15.00;;;;;;;;;;5093818;28;20039;-66
2022/01/15 13:23:07;;;;;;;25.15;13.85;;;;;;;;;;5093816;28;20020;-68
2022/01/15 13:25:33;;;;;;;22.08;14.90;;;;;;;;;;5075570;28;20259;-66
2022/01/15 13:28:02;;;;;;;24.98;15.20;;;;;;;;;;5075507;28;20043;-66
2022/01/15 13:30:28;;;;;;;30.77;14.20;;;;;;;;;;5093263;28;20030;-67
2022/01/15 13:32:57;;;;;;;22.35;13.80;;;;;;;;;;5093757;28;20028;-65
2022/01/15 13:35:24;;;;;;;25.17;15.63;;;;;;;;;;5093546;28;20261;-67
2022/01/15 13:37:55;;;;;;;21.45;12.30;;;;;;;;;;5093318;28;20107;-67
2022/01/15 13:40:42;;;;;;;24.55;14.07;;;;;;;;;;5093427;28;20032;-67
2022/01/15 13:43:09;;;;;;;31.38;14.02;;;;;;;;;;5093316;28;20016;-66
2022/01/15 13:45:40;;;;;;;21.70;12.65;;;;;;;;;;5093291;28;20024;-66
2022/01/15 13:48:09;;;;;;;19.58;11.38;;;;;;;;;;5093384;28;20024;-67
2022/01/15 13:53:28;;;;;;;27.42;14.57;;;;;;;;;;5093263;28;20064;-67
2022/01/15 13:56:08;;;;;;;45.25;20.73;;;;;;;;;;5093232;28;20058;-68
2022/01/15 13:58:34;;;;;;;58.92;23.13;;;;;;;;;;5093129;28;20043;-66
2022/01/15 14:01:20;;;;;;;44.17;17.70;;;;;;;;;;5092894;28;20426;-66
2022/01/15 14:03:47;;;;;;;50.92;20.10;;;;;;;;;;5074719;28;20391;-66
2022/01/15 14:06:14;;;;;;;40.83;15.73;;;;;;;;;;5093108;28;20024;-67
2022/01/15 14:08:40;;;;;;;22.33;12.55;;;;;;;;;;5074903;28;20464;-68
2022/01/15 14:11:16;;;;;;;31.00;15.38;;;;;;;;;;5093064;28;20065;-69
2022/01/15 14:13:44;;;;;;;38.33;17.50;;;;;;;;;;5093136;28;20086;-67
2022/01/15 14:16:23;;;;;;;28.85;14.77;;;;;;;;;;5074894;28;20028;-68
2022/01/15 14:19:27;;;;;;;24.55;13.68;;;;;;;;;;5092925;28;20063;-66
2022/01/15 14:21:55;;;;;;;31.60;14.95;;;;;;;;;;5093018;28;20297;-66
2022/01/15 14:24:23;;;;;;;44.13;20.70;;;;;;;;;;5093028;28;20047;-66
2022/01/15 14:26:57;;;;;;;27.98;14.23;;;;;;;;;;5092891;28;20039;-68
2022/01/15 14:29:27;;;;;;;34.13;17.55;;;;;;;;;;5092908;28;20036;-67
2022/01/15 14:31:57;;;;;;;29.67;16.98;;;;;;;;;;5092872;28;20031;-66
2022/01/15 14:34:24;;;;;;;35.05;16.30;;;;;;;;;;5092710;28;20058;-66
2022/01/15 14:36:50;;;;;;;46.63;20.13;;;;;;;;;;5092877;28;20115;-65
2022/01/15 14:39:17;;;;;;;28.75;15.30;;;;;;;;;;5092719;28;20460;-67
2022/01/15 14:41:45;;;;;;;29.17;15.85;;;;;;;;;;5093883;28;20028;-66
2022/01/15 14:44:11;;;;;;;30.45;16.40;;;;;;;;;;5096729;28;20068;-68
2022/01/15 14:46:38;;;;;;;27.02;16.15;;;;;;;;;;5096703;28;20103;-68